MST,Max TemperatureF,Mean TemperatureF,Min TemperatureF,Max Dew PointF,MeanDew PointF,Min DewpointF,Max Humidity, Mean Humidity, Min Humidity, Max Sea Level PressureIn, Mean Sea Level PressureIn, Min Sea Level PressureIn, Max VisibilityMiles, Mean VisibilityMiles, Min VisibilityMiles, Max Wind SpeedMPH, Mean Wind SpeedMPH, Max Gust SpeedMPH,PrecipitationIn, CloudCover, Events, WindDirDegrees
2012-10-1,96,76,57,37,33,30,48,17,10,30.00,29.94,29.90,10,10,10,6,4,,0.00,0,,58
2012-10-2,98,81,64,50,36,30,37,18,9,30.01,29.95,29.90,10,10,10,13,5,18,0.00,0,,283
2012-10-3,96,78,60,37,33,30,39,18,10,30.06,30.01,29.98,10,10,10,14,5,20,0.00,0,,244
2012-10-4,93,76,60,39,36,34,39,21,12,30.15,30.09,30.04,10,10,10,18,7,22,0.00,0,,162
2012-10-5,91,68,44,41,35,30,87,28,11,30.19,30.05,29.95,10,10,10,8,3,,0.00,1,,77
2012-10-6,89,73,57,41,34,28,48,22,12,30.02,29.97,29.90,10,10,10,9,5,,0.00,0,,260
2012-10-7,87,73,59,43,38,36,48,26,17,29.98,29.93,29.89,10,10,10,7,4,,0.00,0,,288
2012-10-8,91,74,57,39,36,34,48,23,13,30.04,29.96,29.91,10,10,10,8,3,16,0.00,0,,288
2012-10-9,91,76,60,43,34,28,45,20,10,30.03,29.97,29.91,10,10,10,13,4,17,0.00,0,,211
2012-10-10,89,73,57,41,37,32,51,25,14,30.06,29.97,29.89,10,10,10,14,6,20,0.00,0,,167
2012-10-11,84,75,66,54,47,41,49,35,23,29.97,29.93,29.87,10,10,10,23,9,30,0.00,2,,175
2012-10-12,73,66,60,50,43,39,68,44,29,30.12,30.08,30.04,10,10,10,14,9,17,0.00,0,,252
2012-10-13,75,60,46,37,36,34,66,40,22,30.20,30.15,30.07,10,10,10,12,3,20,0.00,0,,328
2012-10-14,89,68,48,36,32,27,62,23,10,30.12,30.04,29.98,10,10,10,12,7,17,0.00,0,,58
2012-10-15,91,73,55,34,30,21,41,21,8,30.05,29.98,29.90,10,10,10,9,7,,0.00,0,,125
2012-10-16,87,69,51,34,30,27,47,21,11,29.97,29.90,29.84,10,10,10,8,3,,0.00,0,,313
2012-10-17,89,71,53,45,38,32,44,25,15,29.98,29.93,29.90,10,10,10,10,5,,0.00,0,,4
2012-10-18,84,74,64,59,56,54,77,49,35,30.12,30.05,30.00,10,10,10,12,6,18,0.00,0,,318
2012-10-19,87,74,60,52,43,36,68,34,16,30.03,29.95,29.87,10,10,10,7,4,,0.00,0,,14
2012-10-20,89,73,57,43,39,36,44,26,17,29.95,29.89,29.82,10,10,10,13,3,25,0.00,0,,247
2012-10-21,82,70,59,45,40,37,55,31,20,29.95,29.90,29.86,10,10,10,16,10,25,0.00,0,,182
2012-10-22,84,68,53,46,42,39,67,36,20,30.00,29.95,29.91,10,10,10,12,3,,0.00,0,,316
2012-10-23,84,68,51,43,41,37,71,33,23,29.97,29.91,29.87,10,10,10,9,4,,0.00,0,,340
2012-10-24,82,60,39,45,39,28,81,39,20,29.98,29.94,29.90,10,10,10,15,6,23,0.00,0,,309
2012-10-25,78,61,44,30,24,16,49,23,11,30.08,30.02,29.97,10,10,10,14,3,16,0.00,0,,296
2012-10-26,80,63,46,21,21,19,34,17,10,30.08,30.01,29.94,10,10,10,13,6,,0.00,0,,318
2012-10-27,84,70,57,30,30,28,33,22,14,30.01,29.95,29.89,10,10,10,20,13,24,0.00,0,,43
2012-10-28,87,69,51,32,31,30,44,24,13,30.05,30.01,29.97,10,10,10,9,6,,0.00,0,,351
2012-10-29,87,69,51,48,34,32,47,25,14,30.16,30.10,30.04,10,10,10,12,6,,0.00,0,,49
2012-10-30,86,68,50,34,32,30,50,24,13,30.13,30.06,30.00,10,10,10,8,3,,0.00,0,,332
2012-10-31,87,71,55,32,29,23,41,19,9,30.09,30.02,29.96,10,10,10,8,5,,0.00,0,,122